首页
METAR-TAF:

METAR-TAF

机场 :

班吉-姆波科国际机场

班基, 中非共和国

纬度: 04-24N, 经度: 018-31E, 海拔: 365米

当前天气观测

该预报发布于1小时和18分钟前的12:00 UTC
风速3节,风向多变
温度 34°C
湿度 56%
气压 1009 hPa
能见度10公里或以上
散云层高于2300英尺
少量云层高于4000英尺, 积雨云.

METAR: FEFF 181200Z VRB03KT 9999 SCT023 FEW040CB 34/24 Q1009 NOSIG

时间: 14:18 (13:18 UTC)

预报

该预报发布于8小时和18分钟前的05:00 UTC
预报有效从18日的 06点(UTC)到 19日的 12点(UTC)
风速2节,风向多变
能見度: 7000
少量云层高于1000英尺
成为
从 18日的 09点(UTC)到 18日的 11点(UTC)
能见度10公里或以上
1500米以下无云,无积雨云
短暂存在
从 18日的 15点(UTC)到 18日的 17点(UTC)
能見度: 4000
短暂存在
从 19日的 03点(UTC)到 19日的 05点(UTC)
能見度: 2000
轻雾

TAF: FEFF 180500Z 1806/1912 VRB02KT 7000 FEW010 BECMG 1809/1811 CAVOK TEMPO 1815/1817 4000 HZFU TEMPO 1903/1905 2000 BR

超过4000个机场的气象观测和天气预报(METAR&TAF报告)。

可查询的气象台以黄色和红色小点在地图上表示。

将鼠标移到小点上方,可查看气象台名称。

然后点击查看天气观测和预报。

如需切换地图:点击带黑十字的绿色按钮放大地图;点击带横线的绿色按钮缩小地图;或者点击绿色箭头查看邻近地区的地图。


METAR-TAF: